ENVR

Værøy Heliport

Værøy, Norway
METAR ENVR 251350Z 21016KT 9999 OVC003 08/07 Q1025
Observed Flight Rules
May-25 @ 13:50 UTC (15 hours ago) Instrument Flight Rules
Wind Visibility Clouds
210° at 16 knots 10,000+ meters
  • Overcast at 300' AGL
Temperatures Readings
Current 8°C / 46°F
Dewpoint 7°C / 45°F
Humidity 93%
Altimeter 30.27" Hg
Pressure 1025 hPa
Elevation 4
METAR ENVR 251350Z 21016KT 9999 OVC003 08/07 Q1025
Observed Flight Rules
May-25 @ 13:50 UTC
(15 hours ago)
LIFR
Wind Visibility
210° at 16 knots 10,000+ meters
Clouds
  • Overcast at 300' AGL
Temperature Dewpoint
8°C / 46°F 7°C / 45°F
Humidity Altimeter Pressure
93% 30.27" Hg 1025 hPa